sensor_id;sensor_type;location;lat;lon;timestamp;P1;durP1;ratioP1;P2;durP2;ratioP2
49590;SDS011;35496;-21.974;-46.800;2022-08-03T00:01:33;14.00;;;7.20;;
49590;SDS011;35496;-21.974;-46.800;2022-08-03T00:04:00;11.35;;;5.65;;
49590;SDS011;35496;-21.974;-46.800;2022-08-03T00:06:26;9.98;;;6.18;;
49590;SDS011;35496;-21.974;-46.800;2022-08-03T00:08:52;7.32;;;5.28;;
49590;SDS011;35496;-21.974;-46.800;2022-08-03T00:11:18;7.90;;;6.10;;
49590;SDS011;35496;-21.974;-46.800;2022-08-03T00:13:44;12.88;;;5.70;;
49590;SDS011;35496;-21.974;-46.800;2022-08-03T00:16:11;11.63;;;6.85;;
49590;SDS011;35496;-21.974;-46.800;2022-08-03T00:18:37;9.57;;;4.93;;
49590;SDS011;35496;-21.974;-46.800;2022-08-03T00:21:04;6.03;;;5.53;;
49590;SDS011;35496;-21.974;-46.800;2022-08-03T00:23:30;13.98;;;6.78;;
49590;SDS011;35496;-21.974;-46.800;2022-08-03T00:25:56;15.30;;;5.80;;
49590;SDS011;35496;-21.974;-46.800;2022-08-03T00:28:22;8.85;;;5.82;;
49590;SDS011;35496;-21.974;-46.800;2022-08-03T00:30:48;8.35;;;5.57;;
49590;SDS011;35496;-21.974;-46.800;2022-08-03T00:33:15;10.15;;;6.10;;
49590;SDS011;35496;-21.974;-46.800;2022-08-03T00:35:41;10.65;;;6.05;;
49590;SDS011;35496;-21.974;-46.800;2022-08-03T00:38:07;9.32;;;5.18;;
49590;SDS011;35496;-21.974;-46.800;2022-08-03T00:40:33;11.65;;;6.78;;
49590;SDS011;35496;-21.974;-46.800;2022-08-03T00:43:01;11.95;;;6.72;;
49590;SDS011;35496;-21.974;-46.800;2022-08-03T00:45:31;11.05;;;6.00;;
49590;SDS011;35496;-21.974;-46.800;2022-08-03T00:47:59;9.23;;;7.07;;
49590;SDS011;35496;-21.974;-46.800;2022-08-03T00:50:27;9.00;;;5.72;;
49590;SDS011;35496;-21.974;-46.800;2022-08-03T00:52:55;9.18;;;6.53;;
49590;SDS011;35496;-21.974;-46.800;2022-08-03T00:55:22;11.23;;;7.32;;
49590;SDS011;35496;-21.974;-46.800;2022-08-03T00:57:48;7.78;;;5.85;;
49590;SDS011;35496;-21.974;-46.800;2022-08-03T01:00:16;16.02;;;6.88;;
49590;SDS011;35496;-21.974;-46.800;2022-08-03T01:02:42;6.18;;;5.47;;
49590;SDS011;35496;-21.974;-46.800;2022-08-03T01:05:08;7.45;;;6.72;;
49590;SDS011;35496;-21.974;-46.800;2022-08-03T01:08:11;6.93;;;5.25;;
49590;SDS011;35496;-21.974;-46.800;2022-08-03T01:17:56;7.97;;;6.25;;
49590;SDS011;35496;-21.974;-46.800;2022-08-03T01:20:24;8.98;;;6.40;;
49590;SDS011;35496;-21.974;-46.800;2022-08-03T01:23:09;12.73;;;7.07;;
49590;SDS011;35496;-21.974;-46.800;2022-08-03T01:25:45;6.72;;;6.07;;
49590;SDS011;35496;-21.974;-46.800;2022-08-03T01:30:44;6.22;;;5.07;;
49590;SDS011;35496;-21.974;-46.800;2022-08-03T01:33:18;9.00;;;6.13;;
49590;SDS011;35496;-21.974;-46.800;2022-08-03T01:35:46;8.82;;;5.35;;
49590;SDS011;35496;-21.974;-46.800;2022-08-03T01:38:34;12.25;;;5.90;;
49590;SDS011;35496;-21.974;-46.800;2022-08-03T01:41:12;7.45;;;5.35;;
49590;SDS011;35496;-21.974;-46.800;2022-08-03T01:43:41;10.93;;;5.97;;
49590;SDS011;35496;-21.974;-46.800;2022-08-03T01:46:09;10.63;;;6.03;;
49590;SDS011;35496;-21.974;-46.800;2022-08-03T01:48:36;19.38;;;6.45;;
49590;SDS011;35496;-21.974;-46.800;2022-08-03T01:51:05;9.60;;;5.55;;
49590;SDS011;35496;-21.974;-46.800;2022-08-03T01:53:31;8.68;;;6.13;;
49590;SDS011;35496;-21.974;-46.800;2022-08-03T01:55:58;11.25;;;5.65;;
49590;SDS011;35496;-21.974;-46.800;2022-08-03T01:58:24;8.00;;;5.35;;
49590;SDS011;35496;-21.974;-46.800;2022-08-03T02:00:51;6.68;;;5.82;;
49590;SDS011;35496;-21.974;-46.800;2022-08-03T02:03:20;6.80;;;6.05;;
49590;SDS011;35496;-21.974;-46.800;2022-08-03T02:05:48;15.02;;;5.78;;
49590;SDS011;35496;-21.974;-46.800;2022-08-03T02:08:14;10.07;;;6.38;;
49590;SDS011;35496;-21.974;-46.800;2022-08-03T02:10:41;19.40;;;6.53;;
49590;SDS011;35496;-21.974;-46.800;2022-08-03T02:13:08;10.98;;;7.35;;
49590;SDS011;35496;-21.974;-46.800;2022-08-03T02:15:36;8.13;;;6.05;;
49590;SDS011;35496;-21.974;-46.800;2022-08-03T02:18:03;9.75;;;6.07;;
49590;SDS011;35496;-21.974;-46.800;2022-08-03T02:20:30;7.05;;;5.68;;
49590;SDS011;35496;-21.974;-46.800;2022-08-03T02:22:57;8.45;;;5.57;;
49590;SDS011;35496;-21.974;-46.800;2022-08-03T02:25:23;6.85;;;6.00;;
49590;SDS011;35496;-21.974;-46.800;2022-08-03T02:27:51;6.30;;;4.70;;
49590;SDS011;35496;-21.974;-46.800;2022-08-03T02:30:20;8.45;;;6.13;;
49590;SDS011;35496;-21.974;-46.800;2022-08-03T02:32:53;9.23;;;5.85;;
49590;SDS011;35496;-21.974;-46.800;2022-08-03T02:35:21;8.52;;;5.82;;
49590;SDS011;35496;-21.974;-46.800;2022-08-03T02:37:49;13.07;;;5.47;;
49590;SDS011;35496;-21.974;-46.800;2022-08-03T02:40:17;10.10;;;5.88;;
49590;SDS011;35496;-21.974;-46.800;2022-08-03T02:42:43;6.13;;;5.22;;
49590;SDS011;35496;-21.974;-46.800;2022-08-03T02:45:10;9.93;;;6.25;;
49590;SDS011;35496;-21.974;-46.800;2022-08-03T02:47:40;7.10;;;6.35;;
49590;SDS011;35496;-21.974;-46.800;2022-08-03T02:50:08;12.57;;;7.00;;
49590;SDS011;35496;-21.974;-46.800;2022-08-03T02:52:34;10.88;;;6.65;;
49590;SDS011;35496;-21.974;-46.800;2022-08-03T02:55:01;8.25;;;5.75;;
49590;SDS011;35496;-21.974;-46.800;2022-08-03T02:57:29;10.75;;;6.38;;
49590;SDS011;35496;-21.974;-46.800;2022-08-03T02:59:56;11.65;;;6.43;;
49590;SDS011;35496;-21.974;-46.800;2022-08-03T03:02:22;7.85;;;5.88;;
49590;SDS011;35496;-21.974;-46.800;2022-08-03T03:04:50;7.38;;;5.13;;
49590;SDS011;35496;-21.974;-46.800;2022-08-03T03:07:16;10.43;;;6.03;;
49590;SDS011;35496;-21.974;-46.800;2022-08-03T03:09:43;7.78;;;5.05;;
49590;SDS011;35496;-21.974;-46.800;2022-08-03T03:12:10;8.88;;;6.15;;
49590;SDS011;35496;-21.974;-46.800;2022-08-03T03:14:37;8.30;;;5.75;;
49590;SDS011;35496;-21.974;-46.800;2022-08-03T03:17:03;13.13;;;6.75;;
49590;SDS011;35496;-21.974;-46.800;2022-08-03T03:19:31;10.40;;;5.25;;
49590;SDS011;35496;-21.974;-46.800;2022-08-03T03:21:59;10.43;;;5.78;;
49590;SDS011;35496;-21.974;-46.800;2022-08-03T03:24:29;9.75;;;5.53;;
49590;SDS011;35496;-21.974;-46.800;2022-08-03T03:26:58;8.30;;;5.20;;
49590;SDS011;35496;-21.974;-46.800;2022-08-03T03:29:25;8.52;;;6.38;;
49590;SDS011;35496;-21.974;-46.800;2022-08-03T03:31:51;9.35;;;5.60;;
49590;SDS011;35496;-21.974;-46.800;2022-08-03T03:34:18;9.35;;;5.88;;
49590;SDS011;35496;-21.974;-46.800;2022-08-03T03:36:44;5.80;;;4.88;;
49590;SDS011;35496;-21.974;-46.800;2022-08-03T03:39:10;10.35;;;5.78;;
49590;SDS011;35496;-21.974;-46.800;2022-08-03T03:41:38;8.88;;;6.00;;
49590;SDS011;35496;-21.974;-46.800;2022-08-03T03:44:04;6.10;;;5.28;;
49590;SDS011;35496;-21.974;-46.800;2022-08-03T03:46:30;7.70;;;6.03;;
49590;SDS011;35496;-21.974;-46.800;2022-08-03T03:48:56;8.05;;;5.65;;
49590;SDS011;35496;-21.974;-46.800;2022-08-03T03:51:22;17.15;;;6.28;;
49590;SDS011;35496;-21.974;-46.800;2022-08-03T03:53:56;11.05;;;6.15;;
49590;SDS011;35496;-21.974;-46.800;2022-08-03T03:56:22;8.52;;;5.97;;
49590;SDS011;35496;-21.974;-46.800;2022-08-03T03:58:48;7.97;;;5.88;;
49590;SDS011;35496;-21.974;-46.800;2022-08-03T04:01:14;11.60;;;7.30;;
49590;SDS011;35496;-21.974;-46.800;2022-08-03T04:03:41;10.90;;;7.22;;
49590;SDS011;35496;-21.974;-46.800;2022-08-03T04:06:07;12.73;;;6.25;;
49590;SDS011;35496;-21.974;-46.800;2022-08-03T04:08:51;9.43;;;5.70;;
49590;SDS011;35496;-21.974;-46.800;2022-08-03T04:11:44;10.18;;;6.78;;
49590;SDS011;35496;-21.974;-46.800;2022-08-03T04:19:10;10.32;;;6.75;;
49590;SDS011;35496;-21.974;-46.800;2022-08-03T04:21:39;13.85;;;7.50;;
49590;SDS011;35496;-21.974;-46.800;2022-08-03T04:24:07;12.20;;;8.00;;
49590;SDS011;35496;-21.974;-46.800;2022-08-03T04:26:35;13.15;;;7.53;;
49590;SDS011;35496;-21.974;-46.800;2022-08-03T04:29:02;13.32;;;6.72;;
49590;SDS011;35496;-21.974;-46.800;2022-08-03T04:31:29;7.47;;;6.78;;
49590;SDS011;35496;-21.974;-46.800;2022-08-03T04:33:55;7.35;;;5.55;;
49590;SDS011;35496;-21.974;-46.800;2022-08-03T04:36:23;15.05;;;5.47;;
49590;SDS011;35496;-21.974;-46.800;2022-08-03T04:38:59;9.40;;;6.13;;
49590;SDS011;35496;-21.974;-46.800;2022-08-03T04:41:27;8.45;;;4.75;;
49590;SDS011;35496;-21.974;-46.800;2022-08-03T04:43:54;6.93;;;5.55;;
49590;SDS011;35496;-21.974;-46.800;2022-08-03T04:46:21;5.07;;;4.53;;
49590;SDS011;35496;-21.974;-46.800;2022-08-03T04:48:48;9.07;;;6.13;;
49590;SDS011;35496;-21.974;-46.800;2022-08-03T04:51:15;5.68;;;4.95;;
49590;SDS011;35496;-21.974;-46.800;2022-08-03T04:53:41;6.85;;;5.18;;
49590;SDS011;35496;-21.974;-46.800;2022-08-03T04:56:08;6.30;;;5.63;;
49590;SDS011;35496;-21.974;-46.800;2022-08-03T04:58:34;7.97;;;5.30;;
49590;SDS011;35496;-21.974;-46.800;2022-08-03T05:01:01;5.97;;;4.88;;
49590;SDS011;35496;-21.974;-46.800;2022-08-03T05:03:27;9.23;;;6.15;;
49590;SDS011;35496;-21.974;-46.800;2022-08-03T05:05:53;12.32;;;6.50;;
49590;SDS011;35496;-21.974;-46.800;2022-08-03T05:08:19;11.57;;;5.90;;
49590;SDS011;35496;-21.974;-46.800;2022-08-03T05:10:45;7.22;;;5.38;;
49590;SDS011;35496;-21.974;-46.800;2022-08-03T05:13:12;6.80;;;5.22;;
49590;SDS011;35496;-21.974;-46.800;2022-08-03T05:15:39;7.75;;;5.75;;
49590;SDS011;35496;-21.974;-46.800;2022-08-03T05:18:06;7.22;;;5.00;;
49590;SDS011;35496;-21.974;-46.800;2022-08-03T05:20:32;9.00;;;5.43;;
49590;SDS011;35496;-21.974;-46.800;2022-08-03T05:22:58;8.25;;;5.55;;
49590;SDS011;35496;-21.974;-46.800;2022-08-03T05:25:28;11.57;;;5.97;;
49590;SDS011;35496;-21.974;-46.800;2022-08-03T05:27:54;7.68;;;5.75;;
49590;SDS011;35496;-21.974;-46.800;2022-08-03T05:30:20;10.57;;;5.82;;
49590;SDS011;35496;-21.974;-46.800;2022-08-03T05:32:47;6.78;;;5.05;;
49590;SDS011;35496;-21.974;-46.800;2022-08-03T05:35:13;8.45;;;4.88;;
49590;SDS011;35496;-21.974;-46.800;2022-08-03T05:37:39;6.97;;;5.30;;
49590;SDS011;35496;-21.974;-46.800;2022-08-03T05:40:06;6.47;;;4.95;;
49590;SDS011;35496;-21.974;-46.800;2022-08-03T05:42:32;10.57;;;5.65;;
49590;SDS011;35496;-21.974;-46.800;2022-08-03T05:44:58;9.68;;;5.82;;
49590;SDS011;35496;-21.974;-46.800;2022-08-03T05:47:24;8.02;;;6.03;;
49590;SDS011;35496;-21.974;-46.800;2022-08-03T05:49:50;10.10;;;5.25;;
49590;SDS011;35496;-21.974;-46.800;2022-08-03T05:52:16;10.15;;;6.40;;
49590;SDS011;35496;-21.974;-46.800;2022-08-03T05:54:42;8.77;;;5.57;;
49590;SDS011;35496;-21.974;-46.800;2022-08-03T05:57:08;9.40;;;6.30;;
49590;SDS011;35496;-21.974;-46.800;2022-08-03T05:59:36;6.38;;;5.13;;
49590;SDS011;35496;-21.974;-46.800;2022-08-03T06:02:02;10.00;;;6.72;;
49590;SDS011;35496;-21.974;-46.800;2022-08-03T06:04:29;13.52;;;6.07;;
49590;SDS011;35496;-21.974;-46.800;2022-08-03T06:06:55;6.93;;;5.82;;
49590;SDS011;35496;-21.974;-46.800;2022-08-03T06:09:21;7.57;;;5.22;;
49590;SDS011;35496;-21.974;-46.800;2022-08-03T06:11:47;9.55;;;5.97;;
49590;SDS011;35496;-21.974;-46.800;2022-08-03T06:14:13;12.10;;;7.85;;
49590;SDS011;35496;-21.974;-46.800;2022-08-03T06:16:39;8.68;;;5.55;;
49590;SDS011;35496;-21.974;-46.800;2022-08-03T06:19:05;9.20;;;5.38;;
49590;SDS011;35496;-21.974;-46.800;2022-08-03T06:21:31;7.78;;;5.25;;
49590;SDS011;35496;-21.974;-46.800;2022-08-03T06:23:57;9.82;;;5.18;;
49590;SDS011;35496;-21.974;-46.800;2022-08-03T06:26:24;7.95;;;5.50;;
49590;SDS011;35496;-21.974;-46.800;2022-08-03T06:28:51;7.88;;;5.75;;
49590;SDS011;35496;-21.974;-46.800;2022-08-03T06:31:17;9.68;;;5.35;;
49590;SDS011;35496;-21.974;-46.800;2022-08-03T06:33:43;7.40;;;4.97;;
49590;SDS011;35496;-21.974;-46.800;2022-08-03T06:36:09;6.93;;;4.63;;
49590;SDS011;35496;-21.974;-46.800;2022-08-03T06:38:35;7.13;;;4.80;;
49590;SDS011;35496;-21.974;-46.800;2022-08-03T06:41:01;7.40;;;5.43;;
49590;SDS011;35496;-21.974;-46.800;2022-08-03T06:43:27;8.02;;;5.68;;
49590;SDS011;35496;-21.974;-46.800;2022-08-03T06:45:54;7.07;;;5.13;;
49590;SDS011;35496;-21.974;-46.800;2022-08-03T06:48:20;8.05;;;5.40;;
49590;SDS011;35496;-21.974;-46.800;2022-08-03T06:50:46;7.15;;;4.90;;
49590;SDS011;35496;-21.974;-46.800;2022-08-03T06:53:12;7.90;;;4.72;;
49590;SDS011;35496;-21.974;-46.800;2022-08-03T06:55:38;6.10;;;4.22;;
49590;SDS011;35496;-21.974;-46.800;2022-08-03T06:58:04;8.30;;;5.05;;
49590;SDS011;35496;-21.974;-46.800;2022-08-03T07:00:31;5.47;;;4.82;;
49590;SDS011;35496;-21.974;-46.800;2022-08-03T07:02:57;11.35;;;6.68;;
49590;SDS011;35496;-21.974;-46.800;2022-08-03T07:05:23;11.48;;;7.53;;
49590;SDS011;35496;-21.974;-46.800;2022-08-03T07:07:50;15.70;;;7.32;;
49590;SDS011;35496;-21.974;-46.800;2022-08-03T07:10:19;12.60;;;7.60;;
49590;SDS011;35496;-21.974;-46.800;2022-08-03T07:12:45;12.45;;;6.68;;
49590;SDS011;35496;-21.974;-46.800;2022-08-03T07:15:11;11.88;;;7.35;;
49590;SDS011;35496;-21.974;-46.800;2022-08-03T07:17:37;9.88;;;7.13;;
49590;SDS011;35496;-21.974;-46.800;2022-08-03T07:20:05;8.77;;;5.95;;
49590;SDS011;35496;-21.974;-46.800;2022-08-03T07:22:32;11.20;;;7.20;;
49590;SDS011;35496;-21.974;-46.800;2022-08-03T07:24:59;9.15;;;6.38;;
49590;SDS011;35496;-21.974;-46.800;2022-08-03T07:27:25;15.13;;;6.75;;
49590;SDS011;35496;-21.974;-46.800;2022-08-03T07:29:53;10.43;;;5.85;;
49590;SDS011;35496;-21.974;-46.800;2022-08-03T07:32:19;6.88;;;5.55;;
49590;SDS011;35496;-21.974;-46.800;2022-08-03T07:34:45;6.75;;;5.85;;
49590;SDS011;35496;-21.974;-46.800;2022-08-03T07:37:11;10.35;;;5.60;;
49590;SDS011;35496;-21.974;-46.800;2022-08-03T07:39:37;8.57;;;5.93;;
49590;SDS011;35496;-21.974;-46.800;2022-08-03T07:42:03;11.23;;;6.95;;
49590;SDS011;35496;-21.974;-46.800;2022-08-03T07:44:30;13.75;;;6.78;;
49590;SDS011;35496;-21.974;-46.800;2022-08-03T07:46:56;13.70;;;7.93;;
49590;SDS011;35496;-21.974;-46.800;2022-08-03T07:49:22;11.60;;;7.75;;
49590;SDS011;35496;-21.974;-46.800;2022-08-03T07:51:48;16.42;;;8.95;;
49590;SDS011;35496;-21.974;-46.800;2022-08-03T07:54:34;14.65;;;7.53;;
49590;SDS011;35496;-21.974;-46.800;2022-08-03T07:57:00;6.43;;;5.43;;
49590;SDS011;35496;-21.974;-46.800;2022-08-03T07:59:26;10.35;;;6.00;;
49590;SDS011;35496;-21.974;-46.800;2022-08-03T08:01:52;14.15;;;6.22;;
49590;SDS011;35496;-21.974;-46.800;2022-08-03T08:04:18;7.97;;;5.03;;
49590;SDS011;35496;-21.974;-46.800;2022-08-03T08:06:44;10.35;;;5.90;;
49590;SDS011;35496;-21.974;-46.800;2022-08-03T08:09:10;8.85;;;4.95;;
49590;SDS011;35496;-21.974;-46.800;2022-08-03T08:11:36;8.18;;;5.45;;
49590;SDS011;35496;-21.974;-46.800;2022-08-03T08:14:03;5.38;;;4.80;;
49590;SDS011;35496;-21.974;-46.800;2022-08-03T08:16:29;9.27;;;5.50;;
49590;SDS011;35496;-21.974;-46.800;2022-08-03T08:18:55;6.93;;;5.03;;
49590;SDS011;35496;-21.974;-46.800;2022-08-03T08:21:22;10.70;;;5.55;;
49590;SDS011;35496;-21.974;-46.800;2022-08-03T08:23:48;8.88;;;5.35;;
49590;SDS011;35496;-21.974;-46.800;2022-08-03T08:26:14;12.25;;;5.15;;
49590;SDS011;35496;-21.974;-46.800;2022-08-03T08:28:40;8.40;;;5.32;;
49590;SDS011;35496;-21.974;-46.800;2022-08-03T08:31:06;8.13;;;5.40;;
49590;SDS011;35496;-21.974;-46.800;2022-08-03T08:33:32;5.35;;;4.80;;
49590;SDS011;35496;-21.974;-46.800;2022-08-03T08:36:00;7.65;;;6.00;;
49590;SDS011;35496;-21.974;-46.800;2022-08-03T08:38:26;7.60;;;6.20;;
49590;SDS011;35496;-21.974;-46.800;2022-08-03T08:40:54;10.95;;;6.05;;
49590;SDS011;35496;-21.974;-46.800;2022-08-03T08:43:20;8.25;;;6.00;;
49590;SDS011;35496;-21.974;-46.800;2022-08-03T08:45:48;8.10;;;5.18;;
49590;SDS011;35496;-21.974;-46.800;2022-08-03T08:48:17;6.25;;;4.22;;
49590;SDS011;35496;-21.974;-46.800;2022-08-03T08:50:45;8.23;;;5.15;;
49590;SDS011;35496;-21.974;-46.800;2022-08-03T08:53:12;13.07;;;5.38;;
49590;SDS011;35496;-21.974;-46.800;2022-08-03T08:55:38;8.75;;;5.50;;
49590;SDS011;35496;-21.974;-46.800;2022-08-03T08:58:04;15.85;;;5.35;;
49590;SDS011;35496;-21.974;-46.800;2022-08-03T09:00:31;8.02;;;4.78;;
49590;SDS011;35496;-21.974;-46.800;2022-08-03T09:02:57;13.55;;;5.57;;
49590;SDS011;35496;-21.974;-46.800;2022-08-03T09:05:23;11.43;;;6.10;;
49590;SDS011;35496;-21.974;-46.800;2022-08-03T09:07:50;8.32;;;5.50;;
49590;SDS011;35496;-21.974;-46.800;2022-08-03T09:10:17;11.07;;;6.47;;
49590;SDS011;35496;-21.974;-46.800;2022-08-03T09:12:47;6.63;;;5.20;;
49590;SDS011;35496;-21.974;-46.800;2022-08-03T09:15:24;6.28;;;5.57;;
49590;SDS011;35496;-21.974;-46.800;2022-08-03T09:17:51;8.32;;;5.68;;
49590;SDS011;35496;-21.974;-46.800;2022-08-03T09:20:18;9.15;;;5.53;;
49590;SDS011;35496;-21.974;-46.800;2022-08-03T09:25:25;16.08;;;5.70;;
49590;SDS011;35496;-21.974;-46.800;2022-08-03T09:27:52;7.00;;;5.53;;
49590;SDS011;35496;-21.974;-46.800;2022-08-03T09:30:18;9.25;;;5.38;;
49590;SDS011;35496;-21.974;-46.800;2022-08-03T09:32:44;8.52;;;5.18;;
49590;SDS011;35496;-21.974;-46.800;2022-08-03T09:35:14;8.32;;;5.50;;
49590;SDS011;35496;-21.974;-46.800;2022-08-03T09:37:40;8.15;;;6.18;;
49590;SDS011;35496;-21.974;-46.800;2022-08-03T09:40:06;9.70;;;5.88;;
49590;SDS011;35496;-21.974;-46.800;2022-08-03T09:42:33;7.65;;;5.28;;
49590;SDS011;35496;-21.974;-46.800;2022-08-03T09:45:02;11.38;;;6.68;;
49590;SDS011;35496;-21.974;-46.800;2022-08-03T09:47:30;9.13;;;5.60;;
49590;SDS011;35496;-21.974;-46.800;2022-08-03T09:49:57;10.13;;;5.18;;
49590;SDS011;35496;-21.974;-46.800;2022-08-03T09:52:29;9.40;;;6.38;;
49590;SDS011;35496;-21.974;-46.800;2022-08-03T09:54:55;6.90;;;5.93;;
49590;SDS011;35496;-21.974;-46.800;2022-08-03T09:57:22;8.63;;;6.32;;
49590;SDS011;35496;-21.974;-46.800;2022-08-03T09:59:49;9.95;;;5.45;;
49590;SDS011;35496;-21.974;-46.800;2022-08-03T10:02:22;10.05;;;5.70;;
49590;SDS011;35496;-21.974;-46.800;2022-08-03T10:04:49;10.15;;;6.13;;
49590;SDS011;35496;-21.974;-46.800;2022-08-03T10:07:19;10.35;;;5.32;;
49590;SDS011;35496;-21.974;-46.800;2022-08-03T10:12:20;14.18;;;4.80;;
49590;SDS011;35496;-21.974;-46.800;2022-08-03T10:14:46;8.20;;;5.22;;
49590;SDS011;35496;-21.974;-46.800;2022-08-03T10:17:13;10.48;;;6.20;;
49590;SDS011;35496;-21.974;-46.800;2022-08-03T10:19:39;8.98;;;5.95;;
49590;SDS011;35496;-21.974;-46.800;2022-08-03T10:22:15;7.00;;;5.55;;
49590;SDS011;35496;-21.974;-46.800;2022-08-03T10:24:54;8.88;;;5.50;;
49590;SDS011;35496;-21.974;-46.800;2022-08-03T10:27:21;12.95;;;6.47;;
49590;SDS011;35496;-21.974;-46.800;2022-08-03T10:29:50;12.43;;;6.30;;
49590;SDS011;35496;-21.974;-46.800;2022-08-03T10:32:20;10.77;;;5.63;;
49590;SDS011;35496;-21.974;-46.800;2022-08-03T10:34:47;9.68;;;5.65;;
49590;SDS011;35496;-21.974;-46.800;2022-08-03T10:37:15;8.02;;;5.55;;
49590;SDS011;35496;-21.974;-46.800;2022-08-03T10:39:43;13.30;;;6.60;;
49590;SDS011;35496;-21.974;-46.800;2022-08-03T10:42:22;8.75;;;5.85;;
49590;SDS011;35496;-21.974;-46.800;2022-08-03T10:44:51;10.25;;;5.68;;
49590;SDS011;35496;-21.974;-46.800;2022-08-03T10:47:20;7.77;;;5.50;;
49590;SDS011;35496;-21.974;-46.800;2022-08-03T10:49:47;11.68;;;5.70;;
49590;SDS011;35496;-21.974;-46.800;2022-08-03T10:52:13;8.85;;;4.78;;
49590;SDS011;35496;-21.974;-46.800;2022-08-03T10:54:41;11.80;;;5.25;;
49590;SDS011;35496;-21.974;-46.800;2022-08-03T11:00:10;7.28;;;5.47;;
49590;SDS011;35496;-21.974;-46.800;2022-08-03T11:05:28;9.20;;;6.18;;
49590;SDS011;35496;-21.974;-46.800;2022-08-03T11:10:39;8.38;;;5.80;;
49590;SDS011;35496;-21.974;-46.800;2022-08-03T11:13:08;11.23;;;5.80;;
49590;SDS011;35496;-21.974;-46.800;2022-08-03T11:15:35;5.88;;;5.10;;
49590;SDS011;35496;-21.974;-46.800;2022-08-03T11:18:11;9.10;;;4.82;;
49590;SDS011;35496;-21.974;-46.800;2022-08-03T11:20:57;8.18;;;5.90;;
49590;SDS011;35496;-21.974;-46.800;2022-08-03T11:23:43;7.97;;;5.80;;
49590;SDS011;35496;-21.974;-46.800;2022-08-03T11:26:16;20.17;;;6.50;;
49590;SDS011;35496;-21.974;-46.800;2022-08-03T11:28:43;14.13;;;5.93;;
49590;SDS011;35496;-21.974;-46.800;2022-08-03T11:34:04;9.95;;;5.35;;
49590;SDS011;35496;-21.974;-46.800;2022-08-03T11:39:17;16.00;;;6.72;;
49590;SDS011;35496;-21.974;-46.800;2022-08-03T11:41:43;7.85;;;5.45;;
49590;SDS011;35496;-21.974;-46.800;2022-08-03T11:44:09;6.03;;;3.90;;
49590;SDS011;35496;-21.974;-46.800;2022-08-03T11:46:55;8.15;;;4.90;;
49590;SDS011;35496;-21.974;-46.800;2022-08-03T11:49:21;8.43;;;4.80;;
49590;SDS011;35496;-21.974;-46.800;2022-08-03T11:51:51;7.00;;;4.65;;
49590;SDS011;35496;-21.974;-46.800;2022-08-03T11:54:18;5.70;;;4.80;;
49590;SDS011;35496;-21.974;-46.800;2022-08-03T11:56:48;6.40;;;4.53;;
49590;SDS011;35496;-21.974;-46.800;2022-08-03T11:59:14;6.65;;;4.10;;
49590;SDS011;35496;-21.974;-46.800;2022-08-03T12:01:42;8.70;;;5.65;;
49590;SDS011;35496;-21.974;-46.800;2022-08-03T12:04:10;12.00;;;4.82;;
49590;SDS011;35496;-21.974;-46.800;2022-08-03T12:06:36;5.22;;;4.75;;
49590;SDS011;35496;-21.974;-46.800;2022-08-03T12:09:21;5.68;;;3.85;;
49590;SDS011;35496;-21.974;-46.800;2022-08-03T12:11:47;10.68;;;5.18;;
49590;SDS011;35496;-21.974;-46.800;2022-08-03T12:14:17;9.02;;;4.88;;
49590;SDS011;35496;-21.974;-46.800;2022-08-03T12:16:47;9.00;;;4.93;;
49590;SDS011;35496;-21.974;-46.800;2022-08-03T12:19:13;7.40;;;4.53;;
49590;SDS011;35496;-21.974;-46.800;2022-08-03T12:21:46;8.80;;;4.43;;
49590;SDS011;35496;-21.974;-46.800;2022-08-03T12:24:13;9.85;;;4.82;;
49590;SDS011;35496;-21.974;-46.800;2022-08-03T12:26:43;6.22;;;4.60;;
49590;SDS011;35496;-21.974;-46.800;2022-08-03T12:29:16;12.93;;;5.60;;
49590;SDS011;35496;-21.974;-46.800;2022-08-03T12:31:42;6.00;;;5.30;;
49590;SDS011;35496;-21.974;-46.800;2022-08-03T12:34:09;6.63;;;4.38;;
49590;SDS011;35496;-21.974;-46.800;2022-08-03T12:36:48;4.25;;;3.70;;
49590;SDS011;35496;-21.974;-46.800;2022-08-03T12:39:15;11.35;;;5.30;;
49590;SDS011;35496;-21.974;-46.800;2022-08-03T12:41:41;12.82;;;5.15;;
49590;SDS011;35496;-21.974;-46.800;2022-08-03T12:44:08;9.82;;;4.95;;
49590;SDS011;35496;-21.974;-46.800;2022-08-03T12:46:35;7.88;;;5.00;;
49590;SDS011;35496;-21.974;-46.800;2022-08-03T12:49:06;6.95;;;4.95;;
49590;SDS011;35496;-21.974;-46.800;2022-08-03T12:51:33;6.70;;;4.22;;
49590;SDS011;35496;-21.974;-46.800;2022-08-03T12:54:00;11.18;;;6.15;;
49590;SDS011;35496;-21.974;-46.800;2022-08-03T12:56:26;6.28;;;4.22;;
49590;SDS011;35496;-21.974;-46.800;2022-08-03T12:58:52;7.82;;;4.93;;
49590;SDS011;35496;-21.974;-46.800;2022-08-03T13:01:20;7.68;;;4.95;;
49590;SDS011;35496;-21.974;-46.800;2022-08-03T13:03:50;12.65;;;5.10;;
49590;SDS011;35496;-21.974;-46.800;2022-08-03T13:06:18;19.10;;;5.85;;
49590;SDS011;35496;-21.974;-46.800;2022-08-03T13:08:44;17.98;;;4.93;;
49590;SDS011;35496;-21.974;-46.800;2022-08-03T13:11:19;10.27;;;4.63;;
49590;SDS011;35496;-21.974;-46.800;2022-08-03T13:13:46;4.95;;;3.97;;
49590;SDS011;35496;-21.974;-46.800;2022-08-03T13:16:13;12.45;;;4.50;;
49590;SDS011;35496;-21.974;-46.800;2022-08-03T13:18:39;8.32;;;4.80;;
49590;SDS011;35496;-21.974;-46.800;2022-08-03T13:21:05;5.53;;;4.82;;
49590;SDS011;35496;-21.974;-46.800;2022-08-03T13:23:31;14.90;;;6.00;;
49590;SDS011;35496;-21.974;-46.800;2022-08-03T13:25:58;10.10;;;5.57;;
49590;SDS011;35496;-21.974;-46.800;2022-08-03T13:28:24;10.40;;;5.25;;
49590;SDS011;35496;-21.974;-46.800;2022-08-03T13:30:50;9.10;;;5.30;;
49590;SDS011;35496;-21.974;-46.800;2022-08-03T13:33:18;11.52;;;4.47;;
49590;SDS011;35496;-21.974;-46.800;2022-08-03T13:35:44;16.83;;;5.55;;
49590;SDS011;35496;-21.974;-46.800;2022-08-03T13:38:11;10.65;;;5.07;;
49590;SDS011;35496;-21.974;-46.800;2022-08-03T13:40:37;13.75;;;5.45;;
49590;SDS011;35496;-21.974;-46.800;2022-08-03T13:43:03;8.65;;;4.38;;
49590;SDS011;35496;-21.974;-46.800;2022-08-03T13:45:29;6.38;;;3.80;;
49590;SDS011;35496;-21.974;-46.800;2022-08-03T13:47:56;4.97;;;3.78;;
49590;SDS011;35496;-21.974;-46.800;2022-08-03T13:50:22;7.88;;;4.10;;
49590;SDS011;35496;-21.974;-46.800;2022-08-03T13:52:48;5.35;;;4.80;;
49590;SDS011;35496;-21.974;-46.800;2022-08-03T13:55:14;6.68;;;3.92;;
49590;SDS011;35496;-21.974;-46.800;2022-08-03T13:57:40;12.27;;;4.40;;
49590;SDS011;35496;-21.974;-46.800;2022-08-03T14:00:06;6.00;;;3.78;;
49590;SDS011;35496;-21.974;-46.800;2022-08-03T14:02:32;7.32;;;2.75;;
49590;SDS011;35496;-21.974;-46.800;2022-08-03T14:04:59;5.47;;;3.70;;
49590;SDS011;35496;-21.974;-46.800;2022-08-03T14:07:25;4.85;;;3.80;;
49590;SDS011;35496;-21.974;-46.800;2022-08-03T14:09:51;3.58;;;2.70;;
49590;SDS011;35496;-21.974;-46.800;2022-08-03T14:12:17;5.45;;;3.75;;
49590;SDS011;35496;-21.974;-46.800;2022-08-03T14:14:43;8.25;;;4.07;;
49590;SDS011;35496;-21.974;-46.800;2022-08-03T14:17:10;7.13;;;4.25;;
49590;SDS011;35496;-21.974;-46.800;2022-08-03T14:19:36;6.63;;;3.35;;
49590;SDS011;35496;-21.974;-46.800;2022-08-03T14:22:03;4.68;;;3.42;;
49590;SDS011;35496;-21.974;-46.800;2022-08-03T14:24:29;6.30;;;3.28;;
49590;SDS011;35496;-21.974;-46.800;2022-08-03T14:26:55;3.58;;;3.13;;
49590;SDS011;35496;-21.974;-46.800;2022-08-03T14:29:21;6.07;;;3.60;;
49590;SDS011;35496;-21.974;-46.800;2022-08-03T14:31:47;4.25;;;3.25;;
49590;SDS011;35496;-21.974;-46.800;2022-08-03T14:34:13;4.80;;;3.10;;
49590;SDS011;35496;-21.974;-46.800;2022-08-03T14:36:39;6.25;;;3.33;;
49590;SDS011;35496;-21.974;-46.800;2022-08-03T14:39:06;5.97;;;3.42;;
49590;SDS011;35496;-21.974;-46.800;2022-08-03T14:41:32;8.40;;;4.30;;